sensor_id;sensor_type;location;lat;lon;timestamp;pressure;altitude;pressure_sealevel;temperature;humidity
8416;BME280;4245;42.120;24.732;2023-02-20T00:00:20;99448.03;;;15.67;50.11
8416;BME280;4245;42.120;24.732;2023-02-20T00:02:47;99441.41;;;15.61;50.37
8416;BME280;4245;42.120;24.732;2023-02-20T00:05:14;99453.66;;;15.64;50.31
8416;BME280;4245;42.120;24.732;2023-02-20T00:07:41;99449.72;;;15.58;50.49
8416;BME280;4245;42.120;24.732;2023-02-20T00:10:09;99451.94;;;15.53;50.64
8416;BME280;4245;42.120;24.732;2023-02-20T00:12:37;99453.09;;;15.40;51.04
8416;BME280;4245;42.120;24.732;2023-02-20T00:15:05;99459.63;;;15.47;51.09
8416;BME280;4245;42.120;24.732;2023-02-20T00:17:32;99469.31;;;15.38;51.29
8416;BME280;4245;42.120;24.732;2023-02-20T00:19:59;99471.00;;;15.39;51.49
8416;BME280;4245;42.120;24.732;2023-02-20T00:22:26;99478.47;;;15.15;52.24
8416;BME280;4245;42.120;24.732;2023-02-20T00:24:53;99480.28;;;14.94;53.08
8416;BME280;4245;42.120;24.732;2023-02-20T00:27:20;99475.91;;;14.72;53.79
8416;BME280;4245;42.120;24.732;2023-02-20T00:29:48;99484.00;;;14.61;54.24
8416;BME280;4245;42.120;24.732;2023-02-20T00:32:15;99481.69;;;14.56;54.25
8416;BME280;4245;42.120;24.732;2023-02-20T00:34:42;99476.59;;;14.53;54.32
8416;BME280;4245;42.120;24.732;2023-02-20T00:37:08;99489.00;;;14.54;54.36
8416;BME280;4245;42.120;24.732;2023-02-20T00:39:35;99476.84;;;14.50;54.38
8416;BME280;4245;42.120;24.732;2023-02-20T00:42:03;99471.78;;;14.47;54.45
8416;BME280;4245;42.120;24.732;2023-02-20T00:44:29;99478.94;;;14.47;54.58
8416;BME280;4245;42.120;24.732;2023-02-20T00:46:58;99467.47;;;14.56;54.22
8416;BME280;4245;42.120;24.732;2023-02-20T00:49:24;99458.88;;;14.52;54.26
8416;BME280;4245;42.120;24.732;2023-02-20T00:51:51;99462.53;;;14.51;54.35
8416;BME280;4245;42.120;24.732;2023-02-20T00:54:18;99457.84;;;14.64;54.05
8416;BME280;4245;42.120;24.732;2023-02-20T00:56:45;99452.84;;;14.71;53.71
8416;BME280;4245;42.120;24.732;2023-02-20T00:59:12;99458.75;;;14.74;53.65
8416;BME280;4245;42.120;24.732;2023-02-20T01:01:39;99460.00;;;14.70;53.69
8416;BME280;4245;42.120;24.732;2023-02-20T01:04:07;99458.72;;;14.86;53.02
8416;BME280;4245;42.120;24.732;2023-02-20T01:06:34;99457.94;;;14.95;52.32
8416;BME280;4245;42.120;24.732;2023-02-20T01:09:00;99454.53;;;14.93;52.63
8416;BME280;4245;42.120;24.732;2023-02-20T01:11:27;99462.03;;;14.99;52.35
8416;BME280;4245;42.120;24.732;2023-02-20T01:13:54;99457.78;;;14.96;52.42
8416;BME280;4245;42.120;24.732;2023-02-20T01:16:21;99472.63;;;15.00;52.68
8416;BME280;4245;42.120;24.732;2023-02-20T01:18:49;99469.78;;;15.02;52.18
8416;BME280;4245;42.120;24.732;2023-02-20T01:21:17;99484.53;;;14.96;52.36
8416;BME280;4245;42.120;24.732;2023-02-20T01:23:44;99477.22;;;14.98;52.33
8416;BME280;4245;42.120;24.732;2023-02-20T01:26:11;99471.44;;;14.93;52.41
8416;BME280;4245;42.120;24.732;2023-02-20T01:28:38;99476.78;;;14.93;52.41
8416;BME280;4245;42.120;24.732;2023-02-20T01:31:06;99473.97;;;14.95;52.44
8416;BME280;4245;42.120;24.732;2023-02-20T01:33:33;99464.75;;;14.88;52.81
8416;BME280;4245;42.120;24.732;2023-02-20T01:35:59;99476.72;;;14.84;52.95
8416;BME280;4245;42.120;24.732;2023-02-20T01:38:28;99468.59;;;14.74;53.54
8416;BME280;4245;42.120;24.732;2023-02-20T01:40:54;99475.00;;;14.83;53.15
8416;BME280;4245;42.120;24.732;2023-02-20T01:43:21;99470.81;;;14.69;53.56
8416;BME280;4245;42.120;24.732;2023-02-20T01:45:48;99469.84;;;14.70;53.60
8416;BME280;4245;42.120;24.732;2023-02-20T01:48:20;99475.66;;;14.75;53.35
8416;BME280;4245;42.120;24.732;2023-02-20T01:50:47;99472.91;;;14.65;53.90
8416;BME280;4245;42.120;24.732;2023-02-20T01:53:19;99477.44;;;14.54;54.24
8416;BME280;4245;42.120;24.732;2023-02-20T01:55:50;99478.88;;;14.58;54.00
8416;BME280;4245;42.120;24.732;2023-02-20T01:58:21;99471.00;;;14.56;54.49
8416;BME280;4245;42.120;24.732;2023-02-20T02:00:49;99476.66;;;14.42;54.76
8416;BME280;4245;42.120;24.732;2023-02-20T02:03:19;99481.63;;;14.35;55.24
8416;BME280;4245;42.120;24.732;2023-02-20T02:05:57;99481.00;;;14.43;55.10
8416;BME280;4245;42.120;24.732;2023-02-20T02:08:26;99480.56;;;14.27;55.43
8416;BME280;4245;42.120;24.732;2023-02-20T02:11:00;99479.59;;;14.28;55.85
8416;BME280;4245;42.120;24.732;2023-02-20T02:13:27;99484.56;;;14.21;56.18
8416;BME280;4245;42.120;24.732;2023-02-20T02:16:03;99499.06;;;14.08;56.75
8416;BME280;4245;42.120;24.732;2023-02-20T02:18:47;99516.91;;;13.96;57.24
8416;BME280;4245;42.120;24.732;2023-02-20T02:21:56;99502.38;;;13.89;57.81
8416;BME280;4245;42.120;24.732;2023-02-20T02:30:59;99519.47;;;13.64;59.49
8416;BME280;4245;42.120;24.732;2023-02-20T02:34:25;99516.53;;;13.56;60.19
8416;BME280;4245;42.120;24.732;2023-02-20T02:37:06;99521.50;;;13.38;60.81
8416;BME280;4245;42.120;24.732;2023-02-20T02:39:44;99516.44;;;13.35;61.26
8416;BME280;4245;42.120;24.732;2023-02-20T02:42:19;99530.13;;;13.42;60.83
8416;BME280;4245;42.120;24.732;2023-02-20T02:44:53;99528.16;;;13.33;61.95
8416;BME280;4245;42.120;24.732;2023-02-20T02:47:28;99538.50;;;13.48;61.70
8416;BME280;4245;42.120;24.732;2023-02-20T02:50:00;99539.38;;;13.49;61.74
8416;BME280;4245;42.120;24.732;2023-02-20T02:52:30;99548.22;;;13.49;61.20
8416;BME280;4245;42.120;24.732;2023-02-20T02:55:14;99551.50;;;13.53;61.39
8416;BME280;4245;42.120;24.732;2023-02-20T02:57:42;99557.06;;;13.61;61.74
8416;BME280;4245;42.120;24.732;2023-02-20T03:00:11;99569.81;;;13.58;61.93
8416;BME280;4245;42.120;24.732;2023-02-20T03:02:45;99571.28;;;13.51;62.10
8416;BME280;4245;42.120;24.732;2023-02-20T03:05:16;99578.91;;;13.44;62.35
8416;BME280;4245;42.120;24.732;2023-02-20T03:07:46;99573.78;;;13.30;63.36
8416;BME280;4245;42.120;24.732;2023-02-20T03:10:19;99568.91;;;13.24;63.89
8416;BME280;4245;42.120;24.732;2023-02-20T03:12:58;99562.50;;;13.26;64.07
8416;BME280;4245;42.120;24.732;2023-02-20T03:15:29;99554.88;;;13.09;64.83
8416;BME280;4245;42.120;24.732;2023-02-20T03:18:04;99563.41;;;13.14;64.94
8416;BME280;4245;42.120;24.732;2023-02-20T03:20:36;99563.97;;;13.06;65.77
8416;BME280;4245;42.120;24.732;2023-02-20T03:23:07;99578.34;;;13.17;65.56
8416;BME280;4245;42.120;24.732;2023-02-20T03:25:36;99578.34;;;13.17;65.15
8416;BME280;4245;42.120;24.732;2023-02-20T03:28:08;99587.75;;;13.10;66.03
8416;BME280;4245;42.120;24.732;2023-02-20T03:30:40;99587.53;;;13.13;65.78
8416;BME280;4245;42.120;24.732;2023-02-20T03:33:10;99586.81;;;13.22;65.36
8416;BME280;4245;42.120;24.732;2023-02-20T03:35:57;99587.47;;;13.25;65.16
8416;BME280;4245;42.120;24.732;2023-02-20T03:38:46;99591.59;;;13.05;65.77
8416;BME280;4245;42.120;24.732;2023-02-20T03:41:34;99594.38;;;13.04;66.23
8416;BME280;4245;42.120;24.732;2023-02-20T03:44:19;99589.03;;;13.04;66.27
8416;BME280;4245;42.120;24.732;2023-02-20T03:46:49;99592.31;;;12.96;66.69
8416;BME280;4245;42.120;24.732;2023-02-20T03:49:20;99600.31;;;12.96;66.93
8416;BME280;4245;42.120;24.732;2023-02-20T03:51:48;99610.56;;;12.90;67.05
8416;BME280;4245;42.120;24.732;2023-02-20T03:54:27;99617.25;;;12.95;67.10
8416;BME280;4245;42.120;24.732;2023-02-20T03:56:58;99614.00;;;13.03;66.60
8416;BME280;4245;42.120;24.732;2023-02-20T03:59:29;99618.47;;;13.02;67.35
8416;BME280;4245;42.120;24.732;2023-02-20T04:02:02;99629.25;;;13.14;66.72
8416;BME280;4245;42.120;24.732;2023-02-20T04:04:35;99625.16;;;13.21;66.49
8416;BME280;4245;42.120;24.732;2023-02-20T04:07:07;99625.41;;;13.29;66.14
8416;BME280;4245;42.120;24.732;2023-02-20T04:09:40;99625.66;;;13.26;66.05
8416;BME280;4245;42.120;24.732;2023-02-20T04:12:16;99620.47;;;13.35;66.37
8416;BME280;4245;42.120;24.732;2023-02-20T04:14:45;99625.88;;;13.23;66.77
8416;BME280;4245;42.120;24.732;2023-02-20T04:17:15;99635.84;;;13.32;66.04
8416;BME280;4245;42.120;24.732;2023-02-20T04:19:45;99648.03;;;13.36;65.42
8416;BME280;4245;42.120;24.732;2023-02-20T04:22:17;99641.78;;;13.00;66.59
8416;BME280;4245;42.120;24.732;2023-02-20T04:24:49;99634.22;;;12.94;66.82
8416;BME280;4245;42.120;24.732;2023-02-20T04:27:18;99634.84;;;12.98;66.26
8416;BME280;4245;42.120;24.732;2023-02-20T04:29:45;99627.16;;;12.93;66.17
8416;BME280;4245;42.120;24.732;2023-02-20T04:32:12;99637.47;;;12.87;66.41
8416;BME280;4245;42.120;24.732;2023-02-20T04:34:39;99637.97;;;12.92;65.96
8416;BME280;4245;42.120;24.732;2023-02-20T04:37:08;99643.50;;;12.89;66.62
8416;BME280;4245;42.120;24.732;2023-02-20T04:39:36;99650.09;;;12.72;66.98
8416;BME280;4245;42.120;24.732;2023-02-20T04:42:04;99635.50;;;12.65;67.70
8416;BME280;4245;42.120;24.732;2023-02-20T04:44:31;99618.91;;;12.61;67.55
8416;BME280;4245;42.120;24.732;2023-02-20T04:47:01;99635.84;;;12.60;67.60
8416;BME280;4245;42.120;24.732;2023-02-20T04:49:28;99628.63;;;12.50;68.13
8416;BME280;4245;42.120;24.732;2023-02-20T04:51:55;99638.03;;;12.43;67.67
8416;BME280;4245;42.120;24.732;2023-02-20T04:54:22;99646.66;;;12.46;67.57
8416;BME280;4245;42.120;24.732;2023-02-20T04:56:49;99649.78;;;12.64;66.16
8416;BME280;4245;42.120;24.732;2023-02-20T04:59:18;99646.09;;;12.54;65.58
8416;BME280;4245;42.120;24.732;2023-02-20T05:01:45;99642.78;;;12.50;65.35
8416;BME280;4245;42.120;24.732;2023-02-20T05:04:17;99656.13;;;12.50;65.34
8416;BME280;4245;42.120;24.732;2023-02-20T05:06:46;99644.94;;;12.45;65.29
8416;BME280;4245;42.120;24.732;2023-02-20T05:09:14;99642.00;;;12.37;65.75
8416;BME280;4245;42.120;24.732;2023-02-20T05:11:41;99647.66;;;12.33;65.24
8416;BME280;4245;42.120;24.732;2023-02-20T05:14:08;99647.13;;;12.28;65.71
8416;BME280;4245;42.120;24.732;2023-02-20T05:16:37;99641.03;;;12.26;65.46
8416;BME280;4245;42.120;24.732;2023-02-20T05:19:05;99652.53;;;12.26;64.96
8416;BME280;4245;42.120;24.732;2023-02-20T05:21:32;99645.84;;;12.33;64.45
8416;BME280;4245;42.120;24.732;2023-02-20T05:24:16;99645.75;;;12.22;63.96
8416;BME280;4245;42.120;24.732;2023-02-20T05:26:43;99642.31;;;12.33;63.81
8416;BME280;4245;42.120;24.732;2023-02-20T05:29:11;99662.34;;;12.38;63.37
8416;BME280;4245;42.120;24.732;2023-02-20T05:31:40;99651.34;;;12.30;62.89
8416;BME280;4245;42.120;24.732;2023-02-20T05:34:07;99651.16;;;12.33;62.73
8416;BME280;4245;42.120;24.732;2023-02-20T05:36:34;99669.34;;;12.39;62.65
8416;BME280;4245;42.120;24.732;2023-02-20T05:39:01;99672.34;;;12.47;61.48
8416;BME280;4245;42.120;24.732;2023-02-20T05:41:27;99669.00;;;12.56;61.14
8416;BME280;4245;42.120;24.732;2023-02-20T05:43:54;99701.94;;;12.68;60.79
8416;BME280;4245;42.120;24.732;2023-02-20T05:46:22;99692.75;;;12.72;60.15
8416;BME280;4245;42.120;24.732;2023-02-20T05:48:51;99700.94;;;12.82;59.49
8416;BME280;4245;42.120;24.732;2023-02-20T05:51:20;99704.22;;;12.85;59.84
8416;BME280;4245;42.120;24.732;2023-02-20T05:53:47;99708.69;;;12.85;59.34
8416;BME280;4245;42.120;24.732;2023-02-20T05:56:13;99718.81;;;12.92;58.85
8416;BME280;4245;42.120;24.732;2023-02-20T05:58:41;99724.97;;;13.05;58.14
8416;BME280;4245;42.120;24.732;2023-02-20T06:01:08;99726.44;;;13.10;57.56
8416;BME280;4245;42.120;24.732;2023-02-20T06:03:35;99738.16;;;13.20;56.51
8416;BME280;4245;42.120;24.732;2023-02-20T06:06:04;99736.97;;;13.24;56.37
8416;BME280;4245;42.120;24.732;2023-02-20T06:08:30;99736.91;;;13.36;55.46
8416;BME280;4245;42.120;24.732;2023-02-20T06:10:57;99740.94;;;13.42;55.53
8416;BME280;4245;42.120;24.732;2023-02-20T06:13:24;99744.63;;;13.52;54.88
8416;BME280;4245;42.120;24.732;2023-02-20T06:15:51;99754.44;;;13.52;55.03
8416;BME280;4245;42.120;24.732;2023-02-20T06:18:18;99762.91;;;13.69;54.24
8416;BME280;4245;42.120;24.732;2023-02-20T06:20:45;99768.75;;;13.74;53.86
8416;BME280;4245;42.120;24.732;2023-02-20T06:23:13;99782.88;;;13.87;53.44
8416;BME280;4245;42.120;24.732;2023-02-20T06:25:39;99769.56;;;13.75;53.33
8416;BME280;4245;42.120;24.732;2023-02-20T06:28:06;99777.59;;;14.10;52.28
8416;BME280;4245;42.120;24.732;2023-02-20T06:30:33;99799.09;;;14.19;51.86
8416;BME280;4245;42.120;24.732;2023-02-20T06:33:00;99793.41;;;14.24;51.24
8416;BME280;4245;42.120;24.732;2023-02-20T06:35:27;99789.31;;;14.31;50.68
8416;BME280;4245;42.120;24.732;2023-02-20T06:37:54;99796.97;;;14.35;50.38
8416;BME280;4245;42.120;24.732;2023-02-20T06:40:22;99798.84;;;14.57;49.92
8416;BME280;4245;42.120;24.732;2023-02-20T06:42:49;99781.25;;;14.66;49.15
8416;BME280;4245;42.120;24.732;2023-02-20T06:45:15;99795.69;;;14.63;48.56
8416;BME280;4245;42.120;24.732;2023-02-20T06:47:42;99792.78;;;14.77;47.80
8416;BME280;4245;42.120;24.732;2023-02-20T06:50:09;99791.06;;;14.76;47.75
8416;BME280;4245;42.120;24.732;2023-02-20T06:52:36;99784.38;;;14.82;47.56
8416;BME280;4245;42.120;24.732;2023-02-20T06:55:03;99783.31;;;14.96;47.45
8416;BME280;4245;42.120;24.732;2023-02-20T06:57:32;99771.50;;;15.09;47.44
8416;BME280;4245;42.120;24.732;2023-02-20T06:59:59;99786.69;;;15.20;47.27
8416;BME280;4245;42.120;24.732;2023-02-20T07:02:25;99769.34;;;15.35;47.32
8416;BME280;4245;42.120;24.732;2023-02-20T07:04:52;99772.97;;;15.45;47.11
8416;BME280;4245;42.120;24.732;2023-02-20T07:07:19;99773.84;;;15.57;46.96
8416;BME280;4245;42.120;24.732;2023-02-20T07:09:46;99763.56;;;15.73;46.60
8416;BME280;4245;42.120;24.732;2023-02-20T07:12:12;99767.59;;;15.88;46.07
8416;BME280;4245;42.120;24.732;2023-02-20T07:14:41;99759.56;;;15.88;46.27
8416;BME280;4245;42.120;24.732;2023-02-20T07:17:07;99759.13;;;16.04;45.88
8416;BME280;4245;42.120;24.732;2023-02-20T07:19:34;99775.72;;;15.98;46.19
8416;BME280;4245;42.120;24.732;2023-02-20T07:22:01;99786.50;;;16.28;45.05
8416;BME280;4245;42.120;24.732;2023-02-20T07:24:28;99775.78;;;16.28;44.71
8416;BME280;4245;42.120;24.732;2023-02-20T07:26:55;99775.84;;;16.38;44.47
8416;BME280;4245;42.120;24.732;2023-02-20T07:29:21;99775.91;;;16.27;43.85
8416;BME280;4245;42.120;24.732;2023-02-20T07:31:49;99768.13;;;16.44;43.59
8416;BME280;4245;42.120;24.732;2023-02-20T07:34:16;99771.91;;;16.63;42.08
8416;BME280;4245;42.120;24.732;2023-02-20T07:36:43;99783.53;;;16.52;41.02
8416;BME280;4245;42.120;24.732;2023-02-20T07:39:11;99781.66;;;16.43;41.31
8416;BME280;4245;42.120;24.732;2023-02-20T07:41:38;99782.53;;;16.64;40.88
8416;BME280;4245;42.120;24.732;2023-02-20T07:47:03;99785.38;;;16.51;39.66
8416;BME280;4245;42.120;24.732;2023-02-20T07:49:30;99793.38;;;16.63;39.45
8416;BME280;4245;42.120;24.732;2023-02-20T07:51:57;99784.75;;;16.59;39.25
8416;BME280;4245;42.120;24.732;2023-02-20T07:54:24;99792.03;;;16.78;39.10
8416;BME280;4245;42.120;24.732;2023-02-20T07:56:52;99791.75;;;17.11;38.62
8416;BME280;4245;42.120;24.732;2023-02-20T07:59:19;99780.25;;;17.49;38.04
8416;BME280;4245;42.120;24.732;2023-02-20T08:01:46;99799.72;;;17.32;36.64
8416;BME280;4245;42.120;24.732;2023-02-20T08:04:14;99770.31;;;17.21;36.61
8416;BME280;4245;42.120;24.732;2023-02-20T08:06:41;99783.31;;;17.25;36.59
8416;BME280;4245;42.120;24.732;2023-02-20T08:09:08;99761.53;;;17.19;36.34
8416;BME280;4245;42.120;24.732;2023-02-20T08:11:36;99769.78;;;17.36;36.13
8416;BME280;4245;42.120;24.732;2023-02-20T08:14:04;99764.31;;;16.98;36.58
8416;BME280;4245;42.120;24.732;2023-02-20T08:16:31;99752.44;;;17.01;36.45
8416;BME280;4245;42.120;24.732;2023-02-20T08:18:59;99761.78;;;17.06;36.33
8416;BME280;4245;42.120;24.732;2023-02-20T08:21:28;99755.94;;;17.51;35.58
8416;BME280;4245;42.120;24.732;2023-02-20T08:23:54;99777.34;;;17.62;35.23
8416;BME280;4245;42.120;24.732;2023-02-20T08:26:21;99767.41;;;17.91;34.36
8416;BME280;4245;42.120;24.732;2023-02-20T08:28:49;99770.53;;;17.96;33.73
8416;BME280;4245;42.120;24.732;2023-02-20T08:31:16;99772.09;;;18.08;33.17
8416;BME280;4245;42.120;24.732;2023-02-20T08:33:43;99788.91;;;18.30;32.53
8416;BME280;4245;42.120;24.732;2023-02-20T08:36:10;99770.69;;;18.14;32.02
8416;BME280;4245;42.120;24.732;2023-02-20T08:38:38;99760.31;;;18.38;32.08
8416;BME280;4245;42.120;24.732;2023-02-20T08:41:07;99761.28;;;18.37;31.62
8416;BME280;4245;42.120;24.732;2023-02-20T08:43:35;99764.38;;;18.42;31.72
8416;BME280;4245;42.120;24.732;2023-02-20T08:46:03;99763.31;;;18.82;31.45
8416;BME280;4245;42.120;24.732;2023-02-20T08:48:30;99759.13;;;18.60;31.33
8416;BME280;4245;42.120;24.732;2023-02-20T08:50:57;99757.47;;;18.86;30.84
8416;BME280;4245;42.120;24.732;2023-02-20T08:53:24;99744.75;;;19.06;30.37
8416;BME280;4245;42.120;24.732;2023-02-20T08:55:52;99763.25;;;18.91;30.27
8416;BME280;4245;42.120;24.732;2023-02-20T08:58:19;99748.31;;;19.06;30.36
8416;BME280;4245;42.120;24.732;2023-02-20T09:00:47;99749.03;;;19.26;30.06
8416;BME280;4245;42.120;24.732;2023-02-20T09:03:14;99760.44;;;19.65;29.01
8416;BME280;4245;42.120;24.732;2023-02-20T09:05:41;99751.81;;;19.34;29.30
8416;BME280;4245;42.120;24.732;2023-02-20T09:08:09;99765.88;;;19.28;28.66
8416;BME280;4245;42.120;24.732;2023-02-20T09:10:35;99785.59;;;19.29;28.41
8416;BME280;4245;42.120;24.732;2023-02-20T09:13:04;99771.91;;;19.40;26.80
8416;BME280;4245;42.120;24.732;2023-02-20T09:15:31;99783.13;;;19.63;26.12
8416;BME280;4245;42.120;24.732;2023-02-20T09:18:03;99777.34;;;19.75;26.11
8416;BME280;4245;42.120;24.732;2023-02-20T09:20:31;99796.84;;;19.69;26.36
8416;BME280;4245;42.120;24.732;2023-02-20T09:22:58;99810.47;;;19.85;25.64
8416;BME280;4245;42.120;24.732;2023-02-20T09:25:25;99796.69;;;19.53;25.77
8416;BME280;4245;42.120;24.732;2023-02-20T09:27:52;99799.69;;;19.85;25.98
8416;BME280;4245;42.120;24.732;2023-02-20T09:30:21;99805.72;;;19.79;25.54
8416;BME280;4245;42.120;24.732;2023-02-20T09:32:48;99809.28;;;19.80;25.44
8416;BME280;4245;42.120;24.732;2023-02-20T09:35:17;99782.25;;;19.89;25.08
8416;BME280;4245;42.120;24.732;2023-02-20T09:37:44;99784.44;;;20.12;24.97
8416;BME280;4245;42.120;24.732;2023-02-20T09:40:12;99803.28;;;20.29;24.45
8416;BME280;4245;42.120;24.732;2023-02-20T09:42:48;99775.81;;;20.08;24.14
8416;BME280;4245;42.120;24.732;2023-02-20T09:45:20;99787.19;;;20.20;24.65
8416;BME280;4245;42.120;24.732;2023-02-20T09:48:04;99770.66;;;19.97;24.19
8416;BME280;4245;42.120;24.732;2023-02-20T09:50:38;99769.34;;;20.01;23.02
8416;BME280;4245;42.120;24.732;2023-02-20T09:53:16;99805.78;;;19.87;22.02
8416;BME280;4245;42.120;24.732;2023-02-20T09:55:46;99763.59;;;19.78;22.54
8416;BME280;4245;42.120;24.732;2023-02-20T09:58:21;99772.88;;;20.02;20.81
8416;BME280;4245;42.120;24.732;2023-02-20T10:00:51;99769.00;;;20.22;20.51
8416;BME280;4245;42.120;24.732;2023-02-20T10:03:22;99779.75;;;20.14;20.80
8416;BME280;4245;42.120;24.732;2023-02-20T10:05:51;99743.75;;;20.23;20.88
8416;BME280;4245;42.120;24.732;2023-02-20T10:08:21;99777.94;;;20.40;20.86
8416;BME280;4245;42.120;24.732;2023-02-20T10:10:49;99766.81;;;20.43;20.42
8416;BME280;4245;42.120;24.732;2023-02-20T10:13:47;99766.00;;;20.43;20.69
8416;BME280;4245;42.120;24.732;2023-02-20T10:16:27;99775.19;;;20.32;20.44
8416;BME280;4245;42.120;24.732;2023-02-20T10:19:06;99760.50;;;20.09;20.14
8416;BME280;4245;42.120;24.732;2023-02-20T10:21:48;99745.97;;;20.10;19.54
8416;BME280;4245;42.120;24.732;2023-02-20T10:24:25;99745.25;;;20.25;19.83
8416;BME280;4245;42.120;24.732;2023-02-20T10:27:02;99758.06;;;20.41;19.56
8416;BME280;4245;42.120;24.732;2023-02-20T10:29:40;99766.00;;;20.25;18.65
8416;BME280;4245;42.120;24.732;2023-02-20T10:32:13;99789.78;;;20.04;19.12
8416;BME280;4245;42.120;24.732;2023-02-20T10:34:52;99772.19;;;20.17;19.39
8416;BME280;4245;42.120;24.732;2023-02-20T10:37:24;99801.91;;;20.43;19.15
8416;BME280;4245;42.120;24.732;2023-02-20T10:39:56;99772.44;;;20.50;19.02
8416;BME280;4245;42.120;24.732;2023-02-20T10:42:29;99762.16;;;20.27;19.15
8416;BME280;4245;42.120;24.732;2023-02-20T10:45:02;99770.56;;;20.07;19.61
8416;BME280;4245;42.120;24.732;2023-02-20T10:47:36;99771.19;;;20.62;19.39
8416;BME280;4245;42.120;24.732;2023-02-20T10:50:11;99743.41;;;20.77;18.86
8416;BME280;4245;42.120;24.732;2023-02-20T10:52:48;99757.38;;;21.07;18.88
8416;BME280;4245;42.120;24.732;2023-02-20T10:55:24;99761.03;;;21.15;18.74
8416;BME280;4245;42.120;24.732;2023-02-20T10:57:57;99759.78;;;21.10;18.56
8416;BME280;4245;42.120;24.732;2023-02-20T11:00:30;99762.03;;;21.14;18.69
8416;BME280;4245;42.120;24.732;2023-02-20T11:03:03;99758.19;;;21.25;18.72
8416;BME280;4245;42.120;24.732;2023-02-20T11:05:37;99757.06;;;21.44;18.65
8416;BME280;4245;42.120;24.732;2023-02-20T11:08:06;99743.50;;;21.36;18.42
8416;BME280;4245;42.120;24.732;2023-02-20T11:10:32;99730.97;;;21.18;18.76
8416;BME280;4245;42.120;24.732;2023-02-20T11:13:00;99744.19;;;21.30;18.62
8416;BME280;4245;42.120;24.732;2023-02-20T11:15:30;99732.38;;;21.55;18.49
8416;BME280;4245;42.120;24.732;2023-02-20T11:17:59;99734.72;;;21.34;18.85
8416;BME280;4245;42.120;24.732;2023-02-20T11:20:42;99751.16;;;21.64;18.73
8416;BME280;4245;42.120;24.732;2023-02-20T11:23:33;99743.56;;;21.84;18.07
8416;BME280;4245;42.120;24.732;2023-02-20T11:26:21;99744.84;;;21.40;18.40
8416;BME280;4245;42.120;24.732;2023-02-20T11:28:57;99736.31;;;21.68;17.98
8416;BME280;4245;42.120;24.732;2023-02-20T11:31:25;99753.44;;;22.01;17.99
8416;BME280;4245;42.120;24.732;2023-02-20T11:33:54;99742.25;;;22.04;18.72
8416;BME280;4245;42.120;24.732;2023-02-20T11:36:23;99739.00;;;22.41;18.17
8416;BME280;4245;42.120;24.732;2023-02-20T11:38:57;99728.50;;;22.46;17.68
8416;BME280;4245;42.120;24.732;2023-02-20T11:41:30;99753.09;;;22.21;17.82
8416;BME280;4245;42.120;24.732;2023-02-20T11:44:19;99753.06;;;22.13;18.01
8416;BME280;4245;42.120;24.732;2023-02-20T11:47:08;99737.47;;;22.47;17.87
8416;BME280;4245;42.120;24.732;2023-02-20T11:49:37;99759.56;;;22.91;17.76
8416;BME280;4245;42.120;24.732;2023-02-20T11:52:08;99744.56;;;22.56;17.47
8416;BME280;4245;42.120;24.732;2023-02-20T11:54:41;99757.06;;;22.81;17.85
8416;BME280;4245;42.120;24.732;2023-02-20T11:57:20;99755.88;;;22.76;17.44
8416;BME280;4245;42.120;24.732;2023-02-20T11:59:48;99746.41;;;22.64;17.64
8416;BME280;4245;42.120;24.732;2023-02-20T12:02:22;99761.41;;;22.99;17.72
8416;BME280;4245;42.120;24.732;2023-02-20T12:05:10;99759.50;;;23.07;17.60
8416;BME280;4245;42.120;24.732;2023-02-20T12:07:40;99754.19;;;22.83;17.76
8416;BME280;4245;42.120;24.732;2023-02-20T12:10:20;99757.50;;;23.01;17.57
8416;BME280;4245;42.120;24.732;2023-02-20T12:12:49;99753.50;;;22.89;17.69
8416;BME280;4245;42.120;24.732;2023-02-20T12:15:20;99745.44;;;23.12;17.88
8416;BME280;4245;42.120;24.732;2023-02-20T12:18:24;99745.69;;;22.86;17.62
8416;BME280;4245;42.120;24.732;2023-02-20T12:21:05;99745.00;;;23.31;18.02
8416;BME280;4245;42.120;24.732;2023-02-20T12:23:41;99755.69;;;23.24;17.76
8416;BME280;4245;42.120;24.732;2023-02-20T12:26:19;99756.25;;;22.48;18.11
8416;BME280;4245;42.120;24.732;2023-02-20T12:28:58;99756.72;;;22.84;17.99
8416;BME280;4245;42.120;24.732;2023-02-20T12:31:38;99757.56;;;22.77;17.56
8416;BME280;4245;42.120;24.732;2023-02-20T12:34:29;99751.53;;;22.50;17.99
8416;BME280;4245;42.120;24.732;2023-02-20T12:37:10;99738.66;;;22.61;17.80
8416;BME280;4245;42.120;24.732;2023-02-20T12:39:46;99722.75;;;22.41;18.05
8416;BME280;4245;42.120;24.732;2023-02-20T12:42:26;99736.16;;;22.35;18.43
8416;BME280;4245;42.120;24.732;2023-02-20T12:45:02;99730.22;;;23.03;17.96
8416;BME280;4245;42.120;24.732;2023-02-20T12:50:20;99734.78;;;23.41;17.59
8416;BME280;4245;42.120;24.732;2023-02-20T12:53:07;99728.59;;;22.85;18.25
8416;BME280;4245;42.120;24.732;2023-02-20T12:55:43;99731.19;;;22.71;18.22
8416;BME280;4245;42.120;24.732;2023-02-20T12:58:25;99729.47;;;22.70;18.70
8416;BME280;4245;42.120;24.732;2023-02-20T13:00:58;99731.97;;;22.87;18.32
8416;BME280;4245;42.120;24.732;2023-02-20T13:03:38;99738.47;;;23.09;18.48
8416;BME280;4245;42.120;24.732;2023-02-20T13:06:07;99732.63;;;22.98;18.76
8416;BME280;4245;42.120;24.732;2023-02-20T13:08:43;99730.75;;;23.29;18.34
8416;BME280;4245;42.120;24.732;2023-02-20T13:11:15;99719.56;;;23.01;18.50
8416;BME280;4245;42.120;24.732;2023-02-20T13:13:51;99717.53;;;23.03;18.53
8416;BME280;4245;42.120;24.732;2023-02-20T13:16:25;99715.63;;;22.65;18.79
8416;BME280;4245;42.120;24.732;2023-02-20T13:19:00;99711.97;;;22.25;18.62
8416;BME280;4245;42.120;24.732;2023-02-20T13:21:29;99729.22;;;22.32;18.74
8416;BME280;4245;42.120;24.732;2023-02-20T13:24:28;99722.13;;;21.99;19.15
8416;BME280;4245;42.120;24.732;2023-02-20T13:26:55;99724.13;;;22.37;19.61
8416;BME280;4245;42.120;24.732;2023-02-20T13:29:24;99742.34;;;22.76;18.47
8416;BME280;4245;42.120;24.732;2023-02-20T13:31:53;99733.88;;;22.79;18.62
8416;BME280;4245;42.120;24.732;2023-02-20T13:34:41;99731.34;;;22.77;18.70
8416;BME280;4245;42.120;24.732;2023-02-20T13:40:37;99729.59;;;22.92;18.61
8416;BME280;4245;42.120;24.732;2023-02-20T13:56:45;99752.41;;;22.35;18.13
8416;BME280;4245;42.120;24.732;2023-02-20T13:59:16;99749.16;;;22.56;18.30